To NAV CANADA Home Page Login to a new session Search on AWWS site Disclaimer Vers la page française équivalente Tips FAQ What's new on the site To the Forecasts and Observations / NOTAM section To "File a Flight Plan" website Publications and other links Update of the User's profile FIC Telephone Numbers My Weather Data Folder Route Weather Data Regional Weather Data Local Weather Data To the Forecasts and Observations / NOTAM section
Request Generated 06/15/2019 at 23:28:36 UTC . Weather information available at that time is displayed.

METAR/TAF

If you find any discrepancies between the coded METAR/TAF and the plain language METAR/TAF please use the coded METAR/TAF. LWIS bulletins are not decoded in plain language.

WINNIPEG/JAMES ARMSTRONG RICHARDSON INTL/MB    

METAR CYWG 152300Z 12011KT 15SM BKN090 BKN290 19/03 A2986 RMK AC6CI1 SLP116 DEN TY ALT 1500FT=
METAR
LOCATION
CYWG - WINNIPEG/JAMES ARMSTRONG RICHARDSON
DATE - TIME
15 JUNE 2019 - 2300 UTC
WIND
120 TRUE @ 11  KNOTS
VISIBILITY
15 STAT.  MILES
RUNWAY VISUAL RANGE
WEATHER
CLOUDINESS
BROKEN CLOUDS (5/8 - 7/8) 9000  FT
BROKEN CLOUDS (5/8 - 7/8) 29000  FT
TEMP / DEWPOINT
19 C / 3 C
ALTIMETER
29.86 IN HG
RECENT WEATHER
WIND SHEAR

METAR CYWG 152200Z 14012G17KT 15SM BKN120 BKN280 20/04 A2987 RMK AC5CI2 SLP119 NSITY ALT 1600FT=
METAR
LOCATION
CYWG - WINNIPEG/JAMES ARMSTRONG RICHARDSON
DATE - TIME
15 JUNE 2019 - 2200 UTC
WIND
140 TRUE @ 12  KNOTS
GUSTS
17 KNOTS
VISIBILITY
15 STAT.  MILES
RUNWAY VISUAL RANGE
WEATHER
CLOUDINESS
BROKEN CLOUDS (5/8 - 7/8) 12000  FT
BROKEN CLOUDS (5/8 - 7/8) 28000  FT
TEMP / DEWPOINT
20 C / 4 C
ALTIMETER
29.87 IN HG
RECENT WEATHER
WIND SHEAR

METAR CYWG 152100Z 14008G18KT 15SM BKN120 BKN280 20/03 A2987 RMK AC6CI1 SLP118 NSITY ALT 1600FT=
METAR
LOCATION
CYWG - WINNIPEG/JAMES ARMSTRONG RICHARDSON
DATE - TIME
15 JUNE 2019 - 2100 UTC
WIND
140 TRUE @ 8  KNOTS
GUSTS
18 KNOTS
VISIBILITY
15 STAT.  MILES
RUNWAY VISUAL RANGE
WEATHER
CLOUDINESS
BROKEN CLOUDS (5/8 - 7/8) 12000  FT
BROKEN CLOUDS (5/8 - 7/8) 28000  FT
TEMP / DEWPOINT
20 C / 3 C
ALTIMETER
29.87 IN HG
RECENT WEATHER
WIND SHEAR

TAF CYWG 151740Z 1518/1618 12012G22KT P6SM FEW080 SCT160 BKN250 FM160300 12006KT P6SM BKN100 OVC200 FM161000 06010KT P6SM VCSH SCT060 OVC100 RMK NXT FCST BY 160000Z=
TAF
LOCATION

CYWG - WINNIPEG/JAMES ARMSTRONG RICHARDSON INTL/MB
VALIDITY [UTC]
15 JUN - 1740 to
16 JUN - 1800
 
TIMES
[UTC]
WIND
[DEGREES TRUE]
VISIBILITY
[STAT. MILES]
WEATHER
CLOUDINESS
[FEET AGL]
 
15 JUN - 1800 to
16 JUN - 0300
120 @ 12 KNOTS
GUSTS 22 KNOTS
6+
NIL
8000 FEW
16000 SCATTERED
25000 BROKEN
 
16 JUN - 0300 to
16 JUN - 1000
120 @ 6 KNOTS
6+
NIL
10000 BROKEN
20000 OVERCAST
 
16 JUN - 1000 to
16 JUN - 1800
60 @ 10 KNOTS
6+
SHOWER IN THE VICINITY
6000 SCATTERED
10000 OVERCAST
REMARKS
THE NEXT FORECAST WILL BE ISSUED BY 0000 UTC ON DAY 16


Your time UTC time
Weather data provided by Environment Canada and NAV CANADA